createdAt,value
2022-09-30T00:01:07.552Z,52.77
2022-09-30T00:03:34.211Z,53.20
2022-09-30T00:06:08.486Z,52.87
2022-09-30T00:08:37.064Z,52.81
2022-09-30T00:11:10.914Z,53.18
2022-09-30T00:13:38.968Z,53.24
2022-09-30T00:16:06.707Z,52.93
2022-09-30T00:18:33.685Z,53.14
2022-09-30T00:21:00.440Z,53.10
2022-09-30T00:23:27.202Z,53.08
2022-09-30T00:26:05.719Z,53.45
2022-09-30T00:28:33.093Z,53.06
2022-09-30T00:31:01.504Z,53.15
2022-09-30T00:33:28.407Z,53.40
2022-09-30T00:35:55.051Z,53.40
2022-09-30T00:38:21.971Z,53.44
2022-09-30T00:40:49.679Z,53.37
2022-09-30T00:43:22.062Z,53.43
2022-09-30T00:45:51.933Z,53.41
2022-09-30T00:48:22.215Z,53.10
2022-09-30T00:50:55.587Z,53.22
2022-09-30T00:53:27.175Z,53.11
2022-09-30T00:56:02.409Z,53.22
2022-09-30T00:58:51.442Z,53.74
2022-09-30T01:01:19.143Z,53.34
2022-09-30T01:03:53.507Z,53.32
2022-09-30T01:06:22.594Z,53.58
2022-09-30T01:08:49.387Z,53.45
2022-09-30T01:11:16.951Z,53.67
2022-09-30T01:13:47.171Z,53.23
2022-09-30T01:16:14.470Z,53.22
2022-09-30T01:18:54.046Z,53.44
2022-09-30T01:21:26.699Z,53.59
2022-09-30T01:24:09.752Z,53.76
2022-09-30T01:27:18.069Z,53.45
2022-09-30T01:30:07.729Z,53.55
2022-09-30T01:32:58.296Z,53.31
2022-09-30T01:35:52.839Z,53.78
2022-09-30T01:38:45.739Z,53.46
2022-09-30T01:41:35.654Z,53.46
2022-09-30T01:44:05.068Z,53.52
2022-09-30T01:46:44.265Z,53.84
2022-09-30T01:49:16.675Z,53.83
2022-09-30T01:51:46.434Z,53.77
2022-09-30T01:54:16.059Z,53.48
2022-09-30T01:56:45.766Z,53.40
2022-09-30T01:59:33.783Z,53.87
2022-09-30T02:02:19.695Z,53.83
2022-09-30T02:04:53.119Z,53.91
2022-09-30T02:07:45.535Z,54.08
2022-09-30T02:10:17.059Z,53.96
2022-09-30T02:12:52.714Z,53.88
2022-09-30T02:15:23.563Z,53.92
2022-09-30T02:17:58.562Z,53.74
2022-09-30T02:20:42.921Z,53.93
2022-09-30T02:23:16.279Z,53.73
2022-09-30T02:25:47.266Z,53.56
2022-09-30T02:28:27.147Z,54.00
2022-09-30T02:30:57.351Z,53.76
2022-09-30T02:33:34.074Z,53.88
2022-09-30T02:36:09.407Z,53.70
2022-09-30T02:38:42.822Z,54.02
2022-09-30T02:41:16.858Z,53.96
2022-09-30T02:43:43.691Z,53.60
2022-09-30T02:46:29.137Z,54.26
2022-09-30T02:49:06.336Z,54.01
2022-09-30T02:51:40.540Z,53.95
2022-09-30T02:54:26.666Z,53.71
2022-09-30T02:56:57.483Z,53.80
2022-09-30T02:59:24.440Z,53.59
2022-09-30T03:01:51.451Z,53.73
2022-09-30T03:04:24.059Z,53.59
2022-09-30T03:06:51.068Z,53.87
2022-09-30T03:09:17.859Z,53.63
2022-09-30T03:11:45.420Z,53.92
2022-09-30T03:14:47.113Z,53.69
2022-09-30T03:17:28.981Z,54.05
2022-09-30T03:20:21.227Z,53.78
2022-09-30T03:23:03.946Z,53.73
2022-09-30T03:26:03.302Z,53.92
2022-09-30T03:28:37.955Z,53.85
2022-09-30T03:31:14.546Z,53.84
2022-09-30T03:33:51.372Z,53.85
2022-09-30T03:36:28.528Z,53.87
2022-09-30T03:38:58.081Z,53.65
2022-09-30T03:41:31.448Z,54.03
2022-09-30T03:44:04.908Z,53.83
2022-09-30T03:46:44.274Z,53.68
2022-09-30T03:49:14.699Z,53.87
2022-09-30T03:51:42.188Z,53.64
2022-09-30T03:54:13.738Z,53.61
2022-09-30T03:56:43.921Z,53.79
2022-09-30T03:59:22.886Z,53.58
2022-09-30T04:01:50.396Z,53.61
2022-09-30T04:04:17.080Z,53.78
2022-09-30T04:06:43.936Z,53.95
2022-09-30T04:09:10.760Z,53.93
2022-09-30T04:11:37.503Z,53.86
2022-09-30T04:14:04.299Z,53.80
2022-09-30T04:16:31.591Z,53.72
2022-09-30T04:18:58.331Z,53.74
2022-09-30T04:21:26.123Z,53.67
2022-09-30T04:23:52.783Z,53.95
2022-09-30T04:26:20.131Z,53.74
2022-09-30T04:28:46.831Z,53.83
2022-09-30T04:31:14.648Z,54.06
2022-09-30T04:33:41.484Z,53.83
2022-09-30T04:36:08.175Z,54.02
2022-09-30T04:38:34.960Z,53.73
2022-09-30T04:41:04.255Z,53.70
2022-09-30T04:43:30.999Z,54.04
2022-09-30T04:45:58.210Z,53.99
2022-09-30T04:48:25.061Z,54.11
2022-09-30T04:50:51.690Z,53.84
2022-09-30T04:53:18.882Z,53.77
2022-09-30T04:55:46.037Z,53.69
2022-09-30T04:58:13.181Z,54.03
2022-09-30T05:00:40.037Z,53.68
2022-09-30T05:03:06.824Z,54.13
2022-09-30T05:05:33.744Z,54.21
2022-09-30T05:08:04.543Z,54.18
2022-09-30T05:10:31.346Z,53.81
2022-09-30T05:12:58.300Z,54.12
2022-09-30T05:15:25.564Z,53.89
2022-09-30T05:17:52.992Z,53.54
2022-09-30T05:20:21.244Z,53.56
2022-09-30T05:22:48.573Z,53.59
2022-09-30T05:25:15.417Z,53.53
2022-09-30T05:27:42.061Z,54.00
2022-09-30T05:30:09.535Z,53.79
2022-09-30T05:32:37.077Z,54.19
2022-09-30T05:35:04.585Z,54.14
2022-09-30T05:37:31.922Z,53.84
2022-09-30T05:39:59.334Z,54.07
2022-09-30T05:42:26.432Z,53.99
2022-09-30T05:44:53.180Z,54.17
2022-09-30T05:47:20.179Z,54.41
2022-09-30T05:49:47.016Z,54.02
2022-09-30T05:52:14.924Z,54.03
2022-09-30T05:54:42.552Z,54.22
2022-09-30T05:57:09.500Z,53.88
2022-09-30T05:59:37.716Z,54.13
2022-09-30T06:02:05.436Z,54.26
2022-09-30T06:04:32.291Z,54.33
2022-09-30T06:06:58.967Z,54.63
2022-09-30T06:09:26.405Z,54.58
2022-09-30T06:11:54.555Z,54.39
2022-09-30T06:14:23.090Z,54.56
2022-09-30T06:16:51.079Z,54.69
2022-09-30T06:19:18.325Z,54.74
2022-09-30T06:21:45.028Z,54.98
2022-09-30T06:24:13.358Z,55.30
2022-09-30T06:26:40.284Z,55.31
2022-09-30T06:29:07.039Z,55.67
2022-09-30T06:31:33.765Z,55.29
2022-09-30T06:34:01.755Z,55.25
2022-09-30T06:36:29.342Z,55.06
2022-09-30T06:38:56.052Z,55.24
2022-09-30T06:41:26.181Z,55.06
2022-09-30T06:44:02.526Z,54.98
2022-09-30T06:46:36.378Z,55.00
2022-09-30T06:49:13.528Z,55.10
2022-09-30T06:51:51.399Z,55.22
2022-09-30T06:54:20.678Z,55.31
2022-09-30T06:56:48.188Z,55.23
2022-09-30T06:59:18.127Z,55.01
2022-09-30T07:01:45.310Z,55.27
2022-09-30T07:04:12.388Z,55.39
2022-09-30T07:06:39.582Z,55.42
2022-09-30T07:09:07.057Z,55.26
2022-09-30T07:11:34.016Z,55.63
2022-09-30T07:14:00.690Z,55.44
2022-09-30T07:16:27.508Z,55.92
2022-09-30T07:18:54.427Z,55.56
2022-09-30T07:21:21.229Z,55.76
2022-09-30T07:23:48.257Z,55.80
2022-09-30T07:26:20.539Z,55.83
2022-09-30T07:28:47.546Z,55.51
2022-09-30T07:31:38.260Z,55.97
2022-09-30T07:34:10.039Z,55.57
2022-09-30T07:36:39.097Z,55.76
2022-09-30T07:39:08.556Z,55.64
2022-09-30T07:41:38.973Z,55.72
2022-09-30T07:44:07.315Z,55.90
2022-09-30T07:46:39.006Z,55.43
2022-09-30T07:49:08.943Z,56.28
2022-09-30T07:51:38.729Z,56.33
2022-09-30T07:54:11.971Z,56.14
2022-09-30T07:59:28.178Z,56.68
2022-09-30T08:01:55.463Z,56.63
2022-09-30T08:04:23.364Z,56.32
2022-09-30T08:06:52.966Z,56.29
2022-09-30T08:09:21.232Z,56.83
2022-09-30T08:11:48.547Z,56.65
2022-09-30T08:14:20.722Z,56.32
2022-09-30T08:16:47.935Z,56.26
2022-09-30T08:19:20.025Z,56.50
2022-09-30T08:21:47.221Z,55.86
2022-09-30T08:24:15.329Z,56.22
2022-09-30T08:26:42.618Z,55.48
2022-09-30T08:29:17.009Z,55.37
2022-09-30T08:31:48.187Z,55.58
2022-09-30T08:34:15.307Z,55.95
2022-09-30T08:36:42.323Z,55.94
2022-09-30T08:39:10.947Z,55.40
2022-09-30T08:41:51.483Z,55.63
2022-09-30T08:44:40.125Z,55.04
2022-09-30T08:47:15.791Z,54.96
2022-09-30T08:49:54.537Z,55.41
2022-09-30T08:52:30.590Z,55.18
2022-09-30T08:55:06.561Z,55.19
2022-09-30T08:57:37.253Z,54.65
2022-09-30T09:00:10.456Z,54.98
2022-09-30T09:02:44.941Z,54.61
2022-09-30T09:05:18.504Z,54.52
2022-09-30T09:08:08.840Z,54.47
2022-09-30T09:10:45.800Z,54.03
2022-09-30T09:13:43.703Z,54.18
2022-09-30T09:16:30.678Z,54.06
2022-09-30T09:19:03.178Z,53.68
2022-09-30T09:21:40.460Z,53.32
2022-09-30T09:24:14.907Z,53.37
2022-09-30T09:26:41.616Z,53.51
2022-09-30T09:29:43.459Z,53.43
2022-09-30T09:32:15.139Z,53.62
2022-09-30T09:34:41.976Z,53.62
2022-09-30T09:37:53.336Z,53.63
2022-09-30T09:40:43.248Z,54.26
2022-09-30T09:43:26.195Z,53.74
2022-09-30T09:46:13.983Z,53.89
2022-09-30T09:48:40.810Z,54.12
2022-09-30T09:51:30.200Z,53.77
2022-09-30T09:54:02.229Z,53.88
2022-09-30T09:56:32.495Z,53.78
2022-09-30T09:59:19.923Z,53.32
2022-09-30T10:01:54.236Z,53.40
2022-09-30T10:04:23.908Z,53.57
2022-09-30T10:07:03.269Z,53.71
2022-09-30T10:09:38.720Z,53.73
2022-09-30T10:12:07.115Z,53.98
2022-09-30T10:14:46.479Z,53.94
2022-09-30T10:17:23.251Z,54.15
2022-09-30T10:19:56.098Z,53.95
2022-09-30T10:22:31.301Z,53.90
2022-09-30T10:25:22.874Z,54.13
2022-09-30T10:28:01.168Z,54.07
2022-09-30T10:30:37.600Z,53.97
2022-09-30T10:33:15.769Z,54.27
2022-09-30T10:35:57.855Z,53.50
2022-09-30T10:38:26.851Z,53.38
2022-09-30T10:40:53.584Z,53.47
2022-09-30T10:43:44.974Z,53.74
2022-09-30T10:46:25.793Z,53.04
2022-09-30T10:48:55.100Z,53.16
2022-09-30T10:51:25.810Z,52.92
2022-09-30T10:53:52.945Z,53.22
2022-09-30T10:56:44.698Z,53.18
2022-09-30T10:59:29.105Z,53.00
2022-09-30T11:02:31.013Z,53.08
2022-09-30T11:05:20.592Z,52.91
2022-09-30T11:07:56.470Z,53.16
2022-09-30T11:10:31.848Z,53.03
2022-09-30T11:13:11.321Z,53.28
2022-09-30T11:16:09.024Z,52.89
2022-09-30T11:18:44.359Z,52.95
2022-09-30T11:21:25.570Z,52.59
2022-09-30T11:24:27.084Z,52.37
2022-09-30T11:27:20.891Z,52.06
2022-09-30T11:30:13.817Z,52.21
2022-09-30T11:32:52.874Z,51.90
2022-09-30T11:35:25.493Z,51.54
2022-09-30T11:38:10.305Z,51.35
2022-09-30T11:40:54.624Z,51.27
2022-09-30T11:43:55.523Z,50.46
2022-09-30T11:46:46.242Z,50.25
2022-09-30T11:49:16.048Z,49.51
2022-09-30T11:51:51.052Z,49.42
2022-09-30T11:54:41.563Z,49.15
2022-09-30T11:57:08.175Z,48.84
2022-09-30T11:59:40.167Z,48.11
2022-09-30T12:02:19.355Z,48.03
2022-09-30T12:04:47.429Z,47.07
2022-09-30T12:07:21.160Z,46.86
2022-09-30T12:09:50.702Z,47.27
2022-09-30T12:12:18.935Z,47.37
2022-09-30T12:14:54.719Z,46.29
2022-09-30T12:17:34.549Z,45.56
2022-09-30T12:20:18.331Z,44.38
2022-09-30T12:22:47.705Z,44.28
2022-09-30T12:25:18.755Z,44.59
2022-09-30T12:28:01.001Z,44.66
2022-09-30T12:30:28.667Z,45.25
2022-09-30T12:33:14.179Z,45.91
2022-09-30T12:35:59.776Z,45.95
2022-09-30T12:38:52.100Z,46.80
2022-09-30T12:41:40.970Z,46.72
2022-09-30T12:44:11.160Z,46.96
2022-09-30T12:47:00.061Z,46.81
2022-09-30T12:49:28.156Z,46.85
2022-09-30T12:52:00.591Z,46.90
2022-09-30T12:54:35.050Z,47.31
2022-09-30T12:57:04.655Z,46.90
2022-09-30T12:59:34.452Z,47.20
2022-09-30T13:02:03.768Z,47.51
2022-09-30T13:04:34.494Z,47.11
2022-09-30T13:07:01.223Z,47.32
2022-09-30T13:09:31.797Z,47.76
2022-09-30T13:11:58.442Z,47.57
2022-09-30T13:14:35.164Z,47.91
2022-09-30T13:17:07.991Z,47.76
2022-09-30T13:19:42.715Z,47.61
2022-09-30T13:22:20.922Z,47.66
2022-09-30T13:25:05.825Z,47.82
2022-09-30T13:27:39.562Z,47.90
2022-09-30T13:30:18.309Z,47.92
2022-09-30T13:32:57.619Z,47.96
2022-09-30T13:35:49.818Z,48.02
2022-09-30T13:38:21.128Z,48.32
2022-09-30T13:41:02.432Z,48.34
2022-09-30T13:43:41.600Z,48.40
2022-09-30T13:46:26.079Z,48.34
2022-09-30T13:48:57.313Z,48.63
2022-09-30T13:51:26.264Z,48.55
2022-09-30T13:54:10.373Z,48.36
2022-09-30T13:56:41.168Z,48.29
2022-09-30T13:59:26.578Z,48.75
2022-09-30T14:02:22.007Z,48.38
2022-09-30T14:04:50.377Z,48.49
2022-09-30T14:07:54.878Z,48.37
2022-09-30T14:10:31.698Z,48.64
2022-09-30T14:13:27.824Z,49.06
2022-09-30T14:16:13.457Z,49.06
2022-09-30T14:19:15.057Z,49.34
2022-09-30T14:21:54.668Z,49.29
2022-09-30T14:24:26.054Z,49.62
2022-09-30T14:27:01.807Z,49.75
2022-09-30T14:30:01.386Z,50.04
2022-09-30T14:32:33.702Z,50.04
2022-09-30T14:35:01.123Z,49.73
2022-09-30T14:37:30.498Z,50.10
2022-09-30T14:39:58.467Z,49.75
2022-09-30T14:42:32.784Z,49.50
2022-09-30T14:45:04.542Z,49.03
2022-09-30T14:47:46.067Z,48.44
2022-09-30T14:50:21.484Z,48.00
2022-09-30T14:52:56.558Z,48.03
2022-09-30T14:55:33.504Z,47.84
2022-09-30T14:58:29.288Z,47.94
2022-09-30T15:01:02.640Z,47.81
2022-09-30T15:03:30.106Z,47.71
2022-09-30T15:05:58.070Z,47.35
2022-09-30T15:08:25.260Z,47.26
2022-09-30T15:10:54.763Z,47.20
2022-09-30T15:13:27.963Z,47.42
2022-09-30T15:15:54.830Z,47.48
2022-09-30T15:18:35.690Z,47.52
2022-09-30T15:21:10.202Z,43.91
2022-09-30T15:23:39.607Z,38.34
2022-09-30T15:26:07.076Z,34.70
2022-09-30T15:28:36.755Z,35.76
2022-09-30T15:31:04.780Z,38.23
2022-09-30T15:33:34.425Z,40.93
2022-09-30T15:36:03.455Z,42.86
2022-09-30T15:38:30.663Z,44.26
2022-09-30T15:41:05.780Z,45.66
2022-09-30T15:43:33.779Z,46.57
2022-09-30T15:46:21.646Z,46.71
2022-09-30T15:48:49.006Z,47.22
2022-09-30T15:51:41.388Z,47.65
2022-09-30T15:54:27.137Z,48.58
2022-09-30T15:56:53.887Z,48.69
2022-09-30T15:59:20.531Z,49.09
2022-09-30T16:01:51.152Z,49.21
2022-09-30T16:04:17.738Z,48.84
2022-09-30T16:06:59.607Z,49.12
2022-09-30T16:09:33.558Z,49.31
2022-09-30T16:12:03.681Z,49.33
2022-09-30T16:14:33.126Z,49.71
2022-09-30T16:17:02.317Z,49.73
2022-09-30T16:19:30.461Z,50.43
2022-09-30T16:21:57.471Z,50.54
2022-09-30T16:24:28.520Z,50.40
2022-09-30T16:26:56.892Z,50.67
2022-09-30T16:29:27.155Z,50.71
2022-09-30T16:31:55.948Z,50.59
2022-09-30T16:34:27.787Z,50.64
2022-09-30T16:36:59.738Z,50.96
2022-09-30T16:39:26.507Z,50.67
2022-09-30T16:41:54.229Z,51.06
2022-09-30T16:44:24.497Z,50.99
2022-09-30T16:46:51.751Z,51.17
2022-09-30T16:49:21.274Z,51.39
2022-09-30T16:51:49.033Z,51.27
2022-09-30T16:54:16.091Z,51.65
2022-09-30T16:56:45.272Z,52.05
2022-09-30T16:59:17.124Z,52.19
2022-09-30T17:01:44.523Z,52.42
2022-09-30T17:04:14.092Z,51.87
2022-09-30T17:06:43.995Z,52.35
2022-09-30T17:09:10.671Z,52.38
2022-09-30T17:11:38.284Z,52.46
2022-09-30T17:14:05.817Z,52.42
2022-09-30T17:16:33.817Z,53.12
2022-09-30T17:19:02.952Z,52.70
2022-09-30T17:21:31.519Z,52.97
2022-09-30T17:23:58.902Z,52.78
2022-09-30T17:26:25.795Z,53.43
2022-09-30T17:28:53.669Z,53.33
2022-09-30T17:31:26.237Z,53.54
2022-09-30T17:33:53.040Z,53.17
2022-09-30T17:36:19.812Z,53.57
2022-09-30T17:38:46.722Z,53.48
2022-09-30T17:41:33.102Z,53.81
2022-09-30T17:44:01.909Z,53.98
2022-09-30T17:46:28.895Z,54.06
2022-09-30T17:48:56.899Z,54.22
2022-09-30T17:51:23.591Z,54.21
2022-09-30T17:53:50.416Z,54.58
2022-09-30T17:56:20.387Z,54.66
2022-09-30T17:58:48.950Z,54.39
2022-09-30T18:01:17.575Z,54.71
2022-09-30T18:03:47.863Z,54.86
2022-09-30T18:06:14.663Z,54.98
2022-09-30T18:08:41.480Z,55.00
2022-09-30T18:11:08.379Z,55.09
2022-09-30T18:13:35.237Z,54.93
2022-09-30T18:16:06.148Z,55.11
2022-09-30T18:18:34.424Z,55.39
2022-09-30T18:21:01.091Z,55.72
2022-09-30T18:23:27.885Z,55.94
2022-09-30T18:25:55.001Z,55.70
2022-09-30T18:28:22.010Z,55.84
2022-09-30T18:30:48.850Z,55.60
2022-09-30T18:33:17.376Z,55.72
2022-09-30T18:35:44.383Z,55.52
2022-09-30T18:38:12.868Z,55.51
2022-09-30T18:40:42.772Z,55.55
2022-09-30T18:43:12.949Z,55.33
2022-09-30T18:45:40.285Z,55.31
2022-09-30T18:48:07.792Z,55.32
2022-09-30T18:50:34.769Z,55.18
2022-09-30T18:53:09.151Z,55.10
2022-09-30T18:55:38.168Z,55.09
2022-09-30T18:58:05.023Z,55.15
2022-09-30T19:00:31.971Z,54.87
2022-09-30T19:02:58.715Z,54.70
2022-09-30T19:05:25.668Z,54.81
2022-09-30T19:07:56.007Z,54.68
2022-09-30T19:10:24.512Z,54.75
2022-09-30T19:12:52.123Z,54.58
2022-09-30T19:15:19.237Z,54.23
2022-09-30T19:17:46.631Z,54.25
2022-09-30T19:20:15.414Z,54.22
2022-09-30T19:22:42.168Z,54.41
2022-09-30T19:25:11.850Z,54.16
2022-09-30T19:27:40.843Z,54.06
2022-09-30T19:30:10.160Z,54.18
2022-09-30T19:32:37.062Z,53.80
2022-09-30T19:35:06.822Z,53.75
2022-09-30T19:37:34.440Z,54.11
2022-09-30T19:40:13.312Z,53.52
2022-09-30T19:42:47.410Z,53.92
2022-09-30T19:45:16.430Z,54.01
2022-09-30T19:47:43.441Z,53.76
2022-09-30T19:50:10.156Z,53.72
2022-09-30T19:52:45.052Z,53.56
2022-09-30T19:55:18.011Z,53.34
2022-09-30T19:57:44.781Z,53.35
2022-09-30T20:00:14.938Z,53.22
2022-09-30T20:02:42.090Z,53.33
2022-09-30T20:05:09.387Z,53.01
2022-09-30T20:07:36.119Z,53.05
2022-09-30T20:10:02.822Z,53.17
2022-09-30T20:12:29.643Z,52.88
2022-09-30T20:15:14.747Z,52.91
2022-09-30T20:17:41.629Z,52.99
2022-09-30T20:20:27.417Z,52.86
2022-09-30T20:22:54.172Z,52.80
2022-09-30T20:25:20.850Z,52.82
2022-09-30T20:27:51.983Z,52.48
2022-09-30T20:30:19.814Z,52.81
2022-09-30T20:32:46.504Z,52.67
2022-09-30T20:35:14.002Z,52.44
2022-09-30T20:37:42.179Z,52.52
2022-09-30T20:40:09.868Z,52.70
2022-09-30T20:42:38.489Z,52.49
2022-09-30T20:45:10.696Z,52.29
2022-09-30T20:47:44.920Z,52.40
2022-09-30T20:50:12.954Z,52.64
2022-09-30T20:52:39.722Z,52.76
2022-09-30T20:55:08.022Z,52.64
2022-09-30T20:57:34.745Z,52.46
2022-09-30T21:00:01.899Z,52.63
2022-09-30T21:02:28.975Z,52.47
2022-09-30T21:04:59.737Z,52.23
2022-09-30T21:07:26.589Z,52.28
2022-09-30T21:09:53.250Z,52.30
2022-09-30T21:12:20.010Z,52.36
2022-09-30T21:14:46.706Z,52.38
2022-09-30T21:17:13.700Z,52.25
2022-09-30T21:19:40.347Z,52.36
2022-09-30T21:22:07.406Z,52.59
2022-09-30T21:24:34.111Z,52.23
2022-09-30T21:27:01.757Z,52.27
2022-09-30T21:29:30.597Z,52.20
2022-09-30T21:31:57.787Z,52.53
2022-09-30T21:34:24.757Z,52.51
2022-09-30T21:36:51.525Z,52.33
2022-09-30T21:39:18.273Z,52.19
2022-09-30T21:41:45.436Z,52.29
2022-09-30T21:44:12.143Z,52.43
2022-09-30T21:46:38.937Z,52.22
2022-09-30T21:49:17.289Z,52.37
2022-09-30T21:51:44.073Z,52.19
2022-09-30T21:54:11.714Z,52.33
2022-09-30T21:56:39.030Z,52.09
2022-09-30T21:59:06.153Z,52.52
2022-09-30T22:01:33.398Z,52.13
2022-09-30T22:04:00.403Z,52.19
2022-09-30T22:06:27.584Z,52.25
2022-09-30T22:08:54.270Z,52.23
2022-09-30T22:11:23.839Z,52.01
2022-09-30T22:13:55.663Z,52.31
2022-09-30T22:16:24.443Z,52.21
2022-09-30T22:18:54.640Z,52.27
2022-09-30T22:21:21.635Z,52.14
2022-09-30T22:23:48.929Z,52.37
2022-09-30T22:26:21.395Z,52.08
2022-09-30T22:28:53.775Z,52.46
2022-09-30T22:31:22.476Z,52.30
2022-09-30T22:34:13.079Z,52.42
2022-09-30T22:36:58.795Z,52.08
2022-09-30T22:39:25.780Z,52.05
2022-09-30T22:41:54.192Z,51.98
2022-09-30T22:44:25.952Z,51.93
2022-09-30T22:46:53.707Z,52.06
2022-09-30T22:49:20.740Z,51.98
2022-09-30T22:51:52.034Z,52.11
2022-09-30T22:54:18.860Z,52.06
2022-09-30T22:56:45.755Z,51.87
2022-09-30T22:59:12.657Z,52.10
2022-09-30T23:01:39.380Z,52.03
2022-09-30T23:04:06.294Z,51.92
2022-09-30T23:06:33.027Z,51.92
2022-09-30T23:08:59.784Z,52.17
2022-09-30T23:11:26.426Z,52.18
2022-09-30T23:13:58.203Z,52.20
2022-09-30T23:16:25.910Z,52.27
2022-09-30T23:18:52.678Z,51.83
2022-09-30T23:21:19.926Z,51.89
2022-09-30T23:23:48.363Z,52.26
2022-09-30T23:26:20.908Z,51.91
2022-09-30T23:28:47.635Z,52.23
2022-09-30T23:31:15.905Z,52.30
2022-09-30T23:33:50.812Z,52.01
2022-09-30T23:36:21.801Z,51.85
2022-09-30T23:38:48.515Z,52.09
2022-09-30T23:41:15.272Z,52.13
2022-09-30T23:43:45.885Z,51.77
2022-09-30T23:46:12.519Z,51.92
2022-09-30T23:48:40.032Z,52.03
2022-09-30T23:51:07.612Z,52.07
2022-09-30T23:53:35.172Z,51.90
2022-09-30T23:56:16.394Z,52.23
2022-09-30T23:58:43.912Z,52.22
